Fox Chase Manor, Pennsylvania
Current Conditions -  °F | °C
As of 5:54 PM on Saturday 22 Nov 2014 (Local Time) from KPNE Reporting Station
Overcast Overcast  
Wind Chill: 39°   Ceiling: 5500
Heat Index: 45°   Visibility: 10mi
Dew Point: 16°   Wind: 13mph
Humidity: 31%   Direction: 220°SW
Pressure: 30.31"   Gusts: NA
Location:  40.1039°N, 75.1072°W
Report Text: KPNE 222254Z AUTO 22011KT 10SM OVC055 07/M09 A3031 RMK AO2 RAE2155 SLP263 P0000 T00721089 TSNO
Loading
Personal Weather Stations






























Interactive Weather Map New forecast layout! Learn more

10-Day Weather Forecast

Advertisements
Track Severe Weather on mobile